Time;durP1;ratioP1;P1;durP2;ratioP2;P2;SDS_P1;SDS_P2;PMS_P1;PMS_P2;Temp;Humidity;BMP_temperature;BMP_pressure;BME280_temperature;BME280_humidity;BME280_pressure;Samples;Min_cycle;Max_cycle;Signal;HPM_P1;HPM_P2
2023/03/18 00:01:46;;;;;;;;;;;17.60;86.30;;;;;;5116294;28;20060;-59
2023/03/18 00:04:11;;;;;;;;;;;17.60;86.20;;;;;;5098278;28;19912;-59
2023/03/18 00:06:37;;;;;;;;;;;17.60;86.20;;;;;;5116317;28;19914;-59
2023/03/18 00:09:03;;;;;;;;;;;17.60;86.20;;;;;;5116519;28;20297;-58
2023/03/18 00:11:29;;;;;;;;;;;17.60;86.20;;;;;;5115784;28;19908;-59
2023/03/18 00:13:54;;;;;;;;;;;17.60;86.20;;;;;;5115876;28;20287;-59
2023/03/18 00:16:20;;;;;;;;;;;17.60;86.10;;;;;;5116098;28;19917;-59
2023/03/18 00:18:46;;;;;;;;;;;17.60;86.10;;;;;;5116154;28;19908;-61
2023/03/18 00:21:11;;;;;;;;;;;17.50;86.10;;;;;;5116246;28;19990;-57
2023/03/18 00:23:37;;;;;;;;;;;17.50;86.20;;;;;;5116161;28;19939;-55
2023/03/18 00:26:03;;;;;;;;;;;17.50;86.20;;;;;;5115839;28;19907;-57
2023/03/18 00:28:30;;;;;;;;;;;17.50;86.20;;;;;;5115728;28;19912;-57
2023/03/18 00:31:01;;;;;;;;;;;17.50;86.30;;;;;;5116036;28;19912;-57
2023/03/18 00:33:26;;;;;;;;;;;17.50;86.40;;;;;;5116011;28;20396;-57
2023/03/18 00:35:52;;;;;;;;;;;17.50;86.40;;;;;;5115636;28;19912;-58
2023/03/18 00:38:20;;;;;;;;;;;17.50;86.40;;;;;;5115885;28;20358;-58
2023/03/18 00:40:52;;;;;;;;;;;17.50;86.50;;;;;;5115836;28;20022;-58
2023/03/18 00:43:22;;;;;;;;;;;17.50;86.50;;;;;;5115821;28;19919;-59
2023/03/18 00:45:49;;;;;;;;;;;17.50;86.60;;;;;;5115707;28;19912;-59
2023/03/18 00:48:15;;;;;;;;;;;17.50;86.60;;;;;;5115731;28;19934;-58
2023/03/18 00:50:41;;;;;;;;;;;17.40;86.60;;;;;;5097260;28;20278;-56
2023/03/18 00:53:07;;;;;;;;;;;17.40;86.50;;;;;;5115558;28;19954;-58
2023/03/18 00:55:32;;;;;;;;;;;17.50;86.60;;;;;;5115211;28;19947;-58
2023/03/18 00:57:58;;;;;;;;;;;17.40;86.60;;;;;;5115134;28;19947;-58
2023/03/18 01:00:25;;;;;;;;;;;17.40;86.60;;;;;;5115098;28;20008;-59
2023/03/18 01:02:50;;;;;;;;;;;17.40;86.60;;;;;;5115410;28;19912;-59
2023/03/18 01:05:17;;;;;;;;;;;17.40;86.60;;;;;;5115044;28;19908;-59
2023/03/18 01:07:42;;;;;;;;;;;17.40;86.60;;;;;;5114949;28;19915;-59
2023/03/18 01:10:09;;;;;;;;;;;17.40;86.60;;;;;;5115584;28;19911;-58
2023/03/18 01:12:34;;;;;;;;;;;17.40;86.60;;;;;;5115144;28;19972;-58
2023/03/18 01:15:00;;;;;;;;;;;17.40;86.60;;;;;;5115468;28;19915;-59
2023/03/18 01:17:25;;;;;;;;;;;17.40;86.60;;;;;;5115457;28;19956;-59
2023/03/18 01:19:51;;;;;;;;;;;17.40;86.50;;;;;;5115039;28;19912;-59
2023/03/18 01:22:17;;;;;;;;;;;17.40;86.50;;;;;;5115025;28;19915;-58
2023/03/18 01:24:43;;;;;;;;;;;17.40;86.70;;;;;;5114686;28;20405;-58
2023/03/18 01:27:09;;;;;;;;;;;17.40;86.60;;;;;;5114596;28;19912;-58
2023/03/18 01:29:35;;;;;;;;;;;17.40;86.70;;;;;;5114640;28;19911;-58
2023/03/18 01:32:01;;;;;;;;;;;17.50;86.80;;;;;;5114647;28;20415;-59
2023/03/18 01:34:27;;;;;;;;;;;17.50;86.80;;;;;;5114923;28;19912;-58
2023/03/18 01:36:53;;;;;;;;;;;17.50;86.80;;;;;;5114855;28;19914;-59
2023/03/18 01:39:18;;;;;;;;;;;17.50;87.40;;;;;;5114796;28;19907;-59
2023/03/18 01:41:44;;;;;;;;;;;17.50;86.80;;;;;;5114496;28;19951;-58
2023/03/18 01:44:14;;;;;;;;;;;17.50;86.80;;;;;;5114763;28;19908;-59
2023/03/18 01:46:42;;;;;;;;;;;17.50;86.60;;;;;;5096666;28;20289;-58
2023/03/18 01:49:11;;;;;;;;;;;17.50;86.70;;;;;;5114398;28;20006;-58
2023/03/18 01:51:37;;;;;;;;;;;17.50;86.50;;;;;;5114688;28;19908;-59
2023/03/18 01:54:05;;;;;;;;;;;17.50;86.40;;;;;;5114619;28;19908;-59
2023/03/18 01:56:32;;;;;;;;;;;17.50;86.40;;;;;;5114305;28;20358;-59
2023/03/18 01:58:58;;;;;;;;;;;17.50;86.50;;;;;;5114330;28;19937;-59
2023/03/18 02:01:27;;;;;;;;;;;17.50;86.40;;;;;;5095716;28;19951;-58
2023/03/18 02:03:54;;;;;;;;;;;17.50;86.40;;;;;;5114517;28;19907;-58
2023/03/18 02:06:19;;;;;;;;;;;17.50;86.50;;;;;;5096180;28;20266;-59
2023/03/18 02:08:45;;;;;;;;;;;17.50;86.50;;;;;;5096172;28;19918;-59
2023/03/18 02:11:11;;;;;;;;;;;17.50;86.50;;;;;;5114208;28;19912;-59
2023/03/18 02:13:37;;;;;;;;;;;17.50;86.60;;;;;;5114748;28;19908;-58
2023/03/18 02:16:07;;;;;;;;;;;17.50;86.60;;;;;;5114007;28;20255;-59
2023/03/18 02:18:35;;;;;;;;;;;17.50;86.70;;;;;;5114359;28;19908;-59
2023/03/18 02:21:03;;;;;;;;;;;17.50;86.60;;;;;;5114325;28;19912;-59
2023/03/18 02:23:47;;;;;;;;;;;17.50;86.70;;;;;;5114281;28;20304;-59
2023/03/18 02:26:13;;;;;;;;;;;17.50;86.60;;;;;;5114212;28;19908;-58
2023/03/18 02:28:39;;;;;;;;;;;17.50;86.70;;;;;;5114196;28;19912;-58
2023/03/18 02:31:08;;;;;;;;;;;17.50;86.60;;;;;;5114253;28;19912;-58
2023/03/18 02:33:35;;;;;;;;;;;17.40;86.70;;;;;;5114529;28;19911;-59
2023/03/18 02:36:03;;;;;;;;;;;17.50;86.70;;;;;;5114216;28;19912;-59
2023/03/18 02:38:28;;;;;;;;;;;17.50;86.70;;;;;;5095938;28;19908;-59
2023/03/18 02:40:54;;;;;;;;;;;17.50;86.70;;;;;;5114298;28;20266;-59
2023/03/18 02:43:20;;;;;;;;;;;17.50;86.70;;;;;;5113849;28;19915;-59
2023/03/18 02:45:54;;;;;;;;;;;17.50;86.70;;;;;;5114191;28;20006;-59
2023/03/18 02:48:21;;;;;;;;;;;17.50;86.70;;;;;;5114051;28;19915;-59
2023/03/18 02:50:47;;;;;;;;;;;17.40;86.70;;;;;;5114393;28;19922;-59
2023/03/18 02:53:13;;;;;;;;;;;17.40;86.70;;;;;;5114022;28;19908;-59
2023/03/18 02:55:38;;;;;;;;;;;17.40;86.70;;;;;;5114079;28;19915;-59
2023/03/18 02:58:04;;;;;;;;;;;17.40;86.70;;;;;;5114058;28;19965;-59
2023/03/18 03:00:29;;;;;;;;;;;17.40;86.70;;;;;;5114005;28;20385;-59
2023/03/18 03:02:55;;;;;;;;;;;17.40;86.80;;;;;;5114257;28;19951;-59
2023/03/18 03:05:21;;;;;;;;;;;17.40;86.70;;;;;;5113717;28;19908;-59
2023/03/18 03:07:46;;;;;;;;;;;17.40;86.70;;;;;;5113638;28;19986;-59
2023/03/18 03:10:12;;;;;;;;;;;17.40;86.70;;;;;;5113653;28;20027;-59
2023/03/18 03:12:38;;;;;;;;;;;17.40;86.70;;;;;;5114195;28;19915;-59
2023/03/18 03:15:05;;;;;;;;;;;17.40;86.70;;;;;;5117563;28;19953;-59
2023/03/18 03:17:32;;;;;;;;;;;17.40;86.70;;;;;;5117228;28;20247;-59
2023/03/18 03:19:58;;;;;;;;;;;17.40;86.70;;;;;;5117148;28;19912;-59
2023/03/18 03:22:24;;;;;;;;;;;17.40;86.80;;;;;;5117742;28;19934;-59
2023/03/18 03:24:49;;;;;;;;;;;17.40;86.90;;;;;;5117092;28;19914;-59
2023/03/18 03:27:15;;;;;;;;;;;17.40;86.80;;;;;;5117251;28;20358;-59
2023/03/18 03:29:41;;;;;;;;;;;17.40;86.90;;;;;;5117281;28;19919;-58
2023/03/18 03:32:06;;;;;;;;;;;17.40;86.80;;;;;;5117192;28;19915;-59
2023/03/18 03:34:32;;;;;;;;;;;17.40;86.90;;;;;;5117144;28;19908;-58
2023/03/18 03:36:58;;;;;;;;;;;17.40;86.90;;;;;;5116816;28;19908;-59
2023/03/18 03:39:23;;;;;;;;;;;17.40;86.90;;;;;;5117058;28;20421;-59
2023/03/18 03:41:49;;;;;;;;;;;17.40;86.80;;;;;;5116926;28;19920;-59
2023/03/18 03:44:14;;;;;;;;;;;17.40;86.80;;;;;;5098629;28;19908;-59
2023/03/18 03:46:40;;;;;;;;;;;17.50;86.70;;;;;;5116836;28;19965;-59
2023/03/18 03:49:05;;;;;;;;;;;17.40;86.70;;;;;;5116880;28;19912;-59
2023/03/18 03:51:31;;;;;;;;;;;17.50;86.70;;;;;;5116560;28;19957;-58
2023/03/18 03:53:56;;;;;;;;;;;17.50;86.60;;;;;;5116530;28;20374;-59
2023/03/18 03:56:22;;;;;;;;;;;17.40;86.60;;;;;;5116744;28;20203;-59
2023/03/18 03:58:47;;;;;;;;;;;17.40;86.60;;;;;;5116477;28;19908;-59
2023/03/18 04:01:13;;;;;;;;;;;17.50;86.70;;;;;;5098104;28;20387;-58
2023/03/18 04:03:38;;;;;;;;;;;17.40;86.60;;;;;;5116351;28;19908;-58
2023/03/18 04:06:05;;;;;;;;;;;17.40;86.60;;;;;;5116227;28;19994;-59
2023/03/18 04:08:31;;;;;;;;;;;17.40;86.60;;;;;;5116400;28;19912;-57
2023/03/18 04:10:56;;;;;;;;;;;17.40;86.70;;;;;;5116421;28;20293;-59
2023/03/18 04:13:22;;;;;;;;;;;17.40;86.70;;;;;;5116386;28;19912;-59
2023/03/18 04:15:48;;;;;;;;;;;17.40;86.70;;;;;;5116290;28;19999;-59
2023/03/18 04:18:15;;;;;;;;;;;17.40;86.70;;;;;;5116284;28;19943;-58
2023/03/18 04:20:41;;;;;;;;;;;17.40;86.80;;;;;;5097991;28;19911;-59
2023/03/18 04:23:07;;;;;;;;;;;17.40;86.80;;;;;;5115981;28;20256;-58
2023/03/18 04:25:32;;;;;;;;;;;17.40;86.90;;;;;;5097651;28;19908;-59
2023/03/18 04:27:58;;;;;;;;;;;17.30;86.90;;;;;;5115941;28;19921;-59
2023/03/18 04:30:25;;;;;;;;;;;17.30;87.00;;;;;;5115970;28;19912;-59
2023/03/18 04:32:51;;;;;;;;;;;17.40;87.10;;;;;;5097158;28;20263;-58
2023/03/18 04:35:16;;;;;;;;;;;17.30;87.00;;;;;;5115574;28;19908;-59
2023/03/18 04:37:43;;;;;;;;;;;17.30;87.00;;;;;;5097604;28;19931;-58
2023/03/18 04:40:10;;;;;;;;;;;17.30;87.00;;;;;;5115589;28;19931;-58
2023/03/18 04:42:36;;;;;;;;;;;17.40;87.00;;;;;;5115906;28;19915;-58
2023/03/18 04:45:02;;;;;;;;;;;17.30;86.90;;;;;;5116018;28;19991;-59
2023/03/18 04:47:28;;;;;;;;;;;17.30;87.00;;;;;;5115594;28;19912;-59
2023/03/18 04:49:53;;;;;;;;;;;17.40;87.00;;;;;;5115637;28;19965;-58
2023/03/18 04:52:19;;;;;;;;;;;17.40;87.00;;;;;;5115637;28;19914;-59
2023/03/18 04:54:45;;;;;;;;;;;17.40;87.00;;;;;;5115549;28;19914;-59
2023/03/18 04:57:11;;;;;;;;;;;17.30;87.10;;;;;;5115227;28;20354;-59
2023/03/18 04:59:36;;;;;;;;;;;17.30;87.10;;;;;;5115499;28;19960;-59
2023/03/18 05:02:03;;;;;;;;;;;17.30;87.20;;;;;;5115467;28;19911;-59
2023/03/18 05:04:29;;;;;;;;;;;17.40;87.10;;;;;;5115136;28;19915;-59
2023/03/18 05:06:54;;;;;;;;;;;17.30;87.10;;;;;;5114874;28;19908;-59
2023/03/18 05:09:20;;;;;;;;;;;17.30;87.10;;;;;;5115023;28;19912;-59
2023/03/18 05:11:45;;;;;;;;;;;17.30;87.10;;;;;;5115036;28;19914;-59
2023/03/18 05:14:10;;;;;;;;;;;17.30;87.00;;;;;;5115348;28;20338;-59
2023/03/18 05:16:37;;;;;;;;;;;17.30;87.10;;;;;;5115167;28;19908;-59
2023/03/18 05:19:02;;;;;;;;;;;17.30;87.10;;;;;;5115172;28;19937;-59
2023/03/18 05:21:27;;;;;;;;;;;17.30;87.10;;;;;;5115106;28;19908;-59
2023/03/18 05:23:53;;;;;;;;;;;17.30;87.60;;;;;;5115320;28;20350;-59
2023/03/18 05:26:19;;;;;;;;;;;17.30;87.20;;;;;;5114872;28;19943;-59
2023/03/18 05:28:44;;;;;;;;;;;17.40;87.30;;;;;;5114575;28;19912;-59
2023/03/18 05:31:10;;;;;;;;;;;17.40;87.20;;;;;;5114944;28;20257;-59
2023/03/18 05:33:35;;;;;;;;;;;17.40;87.10;;;;;;5096585;28;20333;-58
2023/03/18 05:36:01;;;;;;;;;;;17.40;87.00;;;;;;5114249;28;19916;-59
2023/03/18 05:38:27;;;;;;;;;;;17.40;86.90;;;;;;5114860;28;20354;-59
2023/03/18 05:40:52;;;;;;;;;;;17.40;86.80;;;;;;5114558;28;20045;-59
2023/03/18 05:43:18;;;;;;;;;;;17.40;86.80;;;;;;5114512;28;20358;-59
2023/03/18 05:45:44;;;;;;;;;;;17.40;87.30;;;;;;5114665;28;19912;-59
2023/03/18 05:48:10;;;;;;;;;;;17.40;86.70;;;;;;5096317;28;20045;-59
2023/03/18 05:50:38;;;;;;;;;;;17.40;86.80;;;;;;5114937;28;19912;-59
2023/03/18 05:53:04;;;;;;;;;;;17.40;86.80;;;;;;5114504;28;19959;-59
2023/03/18 05:55:30;;;;;;;;;;;17.40;86.80;;;;;;5114530;28;19914;-59
2023/03/18 05:57:56;;;;;;;;;;;17.40;86.90;;;;;;5114588;28;19908;-59
2023/03/18 06:00:23;;;;;;;;;;;17.40;86.80;;;;;;5114516;28;19911;-59
2023/03/18 06:02:51;;;;;;;;;;;17.40;86.80;;;;;;5096369;28;19907;-59
2023/03/18 06:05:17;;;;;;;;;;;17.40;86.90;;;;;;5114447;28;19960;-59
2023/03/18 06:07:42;;;;;;;;;;;17.40;86.90;;;;;;5096098;28;19912;-59
2023/03/18 06:10:09;;;;;;;;;;;17.40;86.90;;;;;;5114607;28;19964;-59
2023/03/18 06:12:34;;;;;;;;;;;17.40;87.00;;;;;;5096096;28;20250;-59
2023/03/18 06:15:00;;;;;;;;;;;17.40;87.00;;;;;;5114312;28;19908;-58
2023/03/18 06:17:26;;;;;;;;;;;17.40;87.00;;;;;;5114043;28;19912;-59
2023/03/18 06:19:52;;;;;;;;;;;17.30;87.00;;;;;;5114330;28;19911;-59
2023/03/18 06:22:17;;;;;;;;;;;17.40;87.00;;;;;;5114050;28;19998;-59
2023/03/18 06:24:42;;;;;;;;;;;17.40;87.10;;;;;;5112447;28;20382;-60
2023/03/18 06:27:08;;;;;;;;;;;17.40;87.10;;;;;;5113737;28;19986;-59
2023/03/18 06:29:35;;;;;;;;;;;17.40;87.00;;;;;;5114357;28;19916;-59
2023/03/18 06:32:01;;;;;;;;;;;17.40;87.00;;;;;;5114049;28;19911;-59
2023/03/18 06:34:27;;;;;;;;;;;17.40;87.10;;;;;;5114416;28;20392;-59
2023/03/18 06:36:52;;;;;;;;;;;17.30;87.10;;;;;;5114136;28;19916;-59
2023/03/18 06:39:18;;;;;;;;;;;17.40;87.10;;;;;;5113798;28;19972;-59
2023/03/18 06:41:44;;;;;;;;;;;17.40;87.10;;;;;;5113511;28;19927;-58
2023/03/18 06:44:10;;;;;;;;;;;17.40;87.20;;;;;;5114084;28;19908;-59
2023/03/18 06:46:36;;;;;;;;;;;17.40;87.20;;;;;;5114112;28;19915;-59
2023/03/18 06:49:02;;;;;;;;;;;17.40;87.10;;;;;;5117462;28;20254;-59
2023/03/18 06:51:27;;;;;;;;;;;17.30;87.10;;;;;;5099530;28;19912;-59
2023/03/18 06:53:53;;;;;;;;;;;17.40;87.20;;;;;;5117576;28;19908;-58
2023/03/18 06:56:18;;;;;;;;;;;17.40;87.20;;;;;;5117525;28;20431;-59
2023/03/18 06:58:44;;;;;;;;;;;17.40;87.20;;;;;;5117494;28;20423;-59
2023/03/18 07:01:11;;;;;;;;;;;17.40;87.30;;;;;;5115534;28;19918;-58
2023/03/18 07:03:37;;;;;;;;;;;17.40;87.30;;;;;;5117722;28;19908;-59
2023/03/18 07:06:03;;;;;;;;;;;17.40;87.30;;;;;;5117829;28;20003;-59
2023/03/18 07:08:29;;;;;;;;;;;17.40;87.20;;;;;;5117102;28;20007;-58
2023/03/18 07:10:54;;;;;;;;;;;17.40;87.20;;;;;;5117036;28;19915;-59
2023/03/18 07:13:20;;;;;;;;;;;17.40;87.10;;;;;;5117578;28;19915;-59
2023/03/18 07:15:45;;;;;;;;;;;17.40;87.10;;;;;;5117202;28;20250;-59
2023/03/18 07:18:11;;;;;;;;;;;17.40;87.00;;;;;;5098047;28;20688;-59
2023/03/18 07:20:37;;;;;;;;;;;17.50;87.10;;;;;;5096933;28;20334;-59
2023/03/18 07:23:02;;;;;;;;;;;17.50;87.00;;;;;;5095703;28;19912;-57
2023/03/18 07:25:29;;;;;;;;;;;17.50;87.30;;;;;;5113505;28;19912;-60
2023/03/18 07:27:55;;;;;;;;;;;17.50;87.20;;;;;;5112468;28;19962;-59
2023/03/18 07:30:20;;;;;;;;;;;17.50;87.20;;;;;;5116743;28;19915;-59
2023/03/18 07:32:46;;;;;;;;;;;17.50;87.30;;;;;;5116611;28;19908;-60
2023/03/18 07:35:13;;;;;;;;;;;17.50;87.30;;;;;;5114958;28;20007;-59
2023/03/18 07:37:39;;;;;;;;;;;17.50;87.20;;;;;;5113791;28;19915;-59
2023/03/18 07:40:05;;;;;;;;;;;17.50;87.20;;;;;;5116237;28;19940;-60
2023/03/18 07:42:31;;;;;;;;;;;17.50;87.20;;;;;;5116692;28;19965;-59
2023/03/18 07:44:56;;;;;;;;;;;17.50;87.10;;;;;;5098630;28;20352;-60
2023/03/18 07:47:23;;;;;;;;;;;17.50;87.00;;;;;;5116741;28;19911;-59
2023/03/18 07:49:50;;;;;;;;;;;17.50;87.00;;;;;;5098498;28;19907;-59
2023/03/18 07:52:16;;;;;;;;;;;17.40;86.90;;;;;;5116678;28;19904;-59
2023/03/18 07:54:42;;;;;;;;;;;17.40;86.80;;;;;;5090784;28;19916;-59
2023/03/18 07:57:09;;;;;;;;;;;17.40;86.80;;;;;;5110941;28;20318;-59
2023/03/18 07:59:35;;;;;;;;;;;17.50;86.80;;;;;;5097471;28;19915;-59
2023/03/18 08:02:01;;;;;;;;;;;17.40;86.70;;;;;;5116493;28;20006;-59
2023/03/18 08:04:27;;;;;;;;;;;17.40;86.70;;;;;;5114917;28;19915;-60
2023/03/18 08:06:54;;;;;;;;;;;17.50;86.70;;;;;;5095984;28;19912;-60
2023/03/18 08:09:19;;;;;;;;;;;17.40;86.60;;;;;;5114324;28;20286;-60
2023/03/18 08:11:45;;;;;;;;;;;17.40;86.50;;;;;;5114193;28;19911;-61
2023/03/18 08:14:11;;;;;;;;;;;17.50;86.60;;;;;;5112275;28;19920;-60
2023/03/18 08:16:36;;;;;;;;;;;17.40;86.60;;;;;;5112495;28;19912;-60
2023/03/18 08:19:02;;;;;;;;;;;17.50;86.60;;;;;;5116171;28;19907;-60
2023/03/18 08:21:28;;;;;;;;;;;17.40;86.50;;;;;;5114978;28;20015;-61
2023/03/18 08:23:55;;;;;;;;;;;17.50;86.60;;;;;;5115647;28;20366;-60
2023/03/18 08:26:20;;;;;;;;;;;17.40;86.50;;;;;;5096812;28;19950;-60
2023/03/18 08:28:46;;;;;;;;;;;17.50;86.40;;;;;;5095999;28;19975;-60
2023/03/18 08:31:13;;;;;;;;;;;17.40;86.40;;;;;;5114866;28;20275;-60
2023/03/18 08:33:38;;;;;;;;;;;17.50;86.40;;;;;;5116122;28;19908;-61
2023/03/18 08:36:04;;;;;;;;;;;17.50;86.40;;;;;;5113477;28;19911;-60
2023/03/18 08:38:30;;;;;;;;;;;17.50;86.40;;;;;;5115972;28;19951;-61
2023/03/18 08:40:56;;;;;;;;;;;17.50;86.30;;;;;;5113946;28;19947;-60
2023/03/18 08:43:22;;;;;;;;;;;17.50;86.30;;;;;;5113100;28;20010;-61
2023/03/18 08:45:54;;;;;;;;;;;17.50;86.30;;;;;;5113646;28;19946;-63
2023/03/18 08:48:21;;;;;;;;;;;17.50;86.30;;;;;;5114018;28;20270;-60
2023/03/18 08:50:47;;;;;;;;;;;17.50;86.30;;;;;;5113715;28;19920;-60
2023/03/18 08:53:12;;;;;;;;;;;17.50;86.20;;;;;;5112231;28;20350;-60
2023/03/18 08:55:38;;;;;;;;;;;17.50;86.20;;;;;;5111848;28;19912;-60
2023/03/18 08:58:05;;;;;;;;;;;17.50;86.20;;;;;;5115914;27;19908;-60
2023/03/18 09:00:31;;;;;;;;;;;17.50;86.20;;;;;;5102717;28;19916;-60
2023/03/18 09:02:56;;;;;;;;;;;17.50;86.10;;;;;;5111349;28;20324;-60
2023/03/18 09:05:23;;;;;;;;;;;17.50;86.10;;;;;;5114857;28;19908;-60
2023/03/18 09:07:49;;;;;;;;;;;17.50;86.10;;;;;;5115038;28;19955;-60
2023/03/18 09:10:16;;;;;;;;;;;17.50;86.10;;;;;;5114162;28;19988;-60
2023/03/18 09:12:42;;;;;;;;;;;17.50;86.10;;;;;;5114910;28;19912;-61
2023/03/18 09:15:09;;;;;;;;;;;17.50;86.10;;;;;;5107787;28;19965;-61
2023/03/18 09:17:36;;;;;;;;;;;17.50;86.00;;;;;;5096141;28;20363;-61
2023/03/18 09:20:02;;;;;;;;;;;17.50;86.10;;;;;;5114566;28;20382;-62
2023/03/18 09:22:27;;;;;;;;;;;17.50;86.00;;;;;;5112668;28;19920;-60
2023/03/18 09:24:53;;;;;;;;;;;17.50;85.90;;;;;;5114884;28;20319;-58
2023/03/18 09:27:18;;;;;;;;;;;17.50;86.40;;;;;;5114865;28;19994;-58
2023/03/18 09:29:44;;;;;;;;;;;17.50;86.00;;;;;;5114663;28;19912;-58
2023/03/18 09:32:10;;;;;;;;;;;17.50;86.10;;;;;;5114376;28;20334;-58
2023/03/18 09:34:35;;;;;;;;;;;17.50;86.00;;;;;;5112184;28;19966;-58
2023/03/18 09:37:00;;;;;;;;;;;17.60;85.90;;;;;;5111853;28;19912;-58
2023/03/18 09:39:26;;;;;;;;;;;17.70;85.80;;;;;;5110261;28;20052;-61
2023/03/18 09:42:01;;;;;;;;;;;17.70;85.50;;;;;;5092791;28;19930;-58
2023/03/18 09:44:32;;;;;;;;;;;17.90;85.20;;;;;;5111904;28;19911;-58
2023/03/18 09:46:57;;;;;;;;;;;18.10;85.00;;;;;;5094033;28;19908;-58
2023/03/18 09:49:23;;;;;;;;;;;18.20;84.70;;;;;;5104357;28;20382;-61
2023/03/18 09:51:52;;;;;;;;;;;18.30;84.40;;;;;;5113342;28;19904;-59
2023/03/18 09:54:39;;;;;;;;;;;18.40;83.90;;;;;;5114253;28;20010;-57
2023/03/18 09:57:11;;;;;;;;;;;18.50;83.80;;;;;;5114117;28;19904;-60
2023/03/18 09:59:39;;;;;;;;;;;18.70;83.50;;;;;;5114122;28;19903;-60
2023/03/18 10:02:25;;;;;;;;;;;18.80;83.30;;;;;;5114062;28;20358;-59
2023/03/18 10:04:58;;;;;;;;;;;18.80;83.10;;;;;;5113421;28;19953;-59
2023/03/18 10:07:32;;;;;;;;;;;18.90;83.00;;;;;;5095466;28;19912;-54
2023/03/18 10:10:09;;;;;;;;;;;19.00;82.90;;;;;;5112549;28;19946;-57
2023/03/18 10:12:36;;;;;;;;;;;19.00;82.80;;;;;;5110427;28;19908;-60
2023/03/18 10:15:13;;;;;;;;;;;19.10;82.20;;;;;;5094760;28;19910;-60
2023/03/18 10:17:41;;;;;;;;;;;19.10;82.60;;;;;;5109731;28;19918;-59
2023/03/18 10:20:14;;;;;;;;;;;19.00;82.70;;;;;;5112630;28;19915;-58
2023/03/18 10:22:42;;;;;;;;;;;19.00;82.80;;;;;;5095618;28;19912;-58
2023/03/18 10:25:15;;;;;;;;;;;19.00;82.80;;;;;;5117670;28;19929;-59
2023/03/18 10:27:58;;;;;;;;;;;19.00;82.80;;;;;;5117871;28;20257;-58
2023/03/18 10:30:29;;;;;;;;;;;19.00;82.90;;;;;;5118106;28;20019;-58
2023/03/18 10:33:03;;;;;;;;;;;19.00;83.00;;;;;;5100016;28;19920;-59
2023/03/18 10:35:47;;;;;;;;;;;18.90;83.00;;;;;;5100003;28;19908;-60
2023/03/18 10:38:44;;;;;;;;;;;18.90;83.00;;;;;;5117932;28;19929;-60
2023/03/18 10:41:33;;;;;;;;;;;18.90;83.10;;;;;;5052202;28;19923;-60
2023/03/18 10:44:02;;;;;;;;;;;18.90;83.30;;;;;;5101942;27;19907;-60
2023/03/18 10:46:28;;;;;;;;;;;18.80;83.30;;;;;;5130670;27;19912;-60
2023/03/18 10:48:56;;;;;;;;;;;18.90;83.40;;;;;;5114111;27;19918;-60
2023/03/18 10:51:27;;;;;;;;;;;18.80;83.40;;;;;;5114398;28;19951;-59
2023/03/18 10:54:08;;;;;;;;;;;18.80;83.50;;;;;;5099169;28;19908;-60
2023/03/18 10:56:34;;;;;;;;;;;18.80;83.50;;;;;;5117815;28;19908;-59
2023/03/18 10:59:00;;;;;;;;;;;18.80;83.60;;;;;;5137796;27;19956;-60
2023/03/18 11:01:27;;;;;;;;;;;18.80;83.60;;;;;;5134222;27;20002;-59
2023/03/18 11:04:00;;;;;;;;;;;18.80;83.70;;;;;;5113737;28;19953;-60
2023/03/18 11:06:40;;;;;;;;;;;18.80;83.60;;;;;;5116739;28;19918;-60
2023/03/18 11:09:07;;;;;;;;;;;18.80;83.60;;;;;;5112120;28;20394;-60
2023/03/18 11:11:34;;;;;;;;;;;18.80;83.70;;;;;;5111074;28;19923;-60
2023/03/18 11:14:03;;;;;;;;;;;18.80;83.70;;;;;;5114350;28;19919;-60
2023/03/18 11:16:32;;;;;;;;;;;18.80;83.70;;;;;;5114509;28;19907;-60
2023/03/18 11:18:58;;;;;;;;;;;18.80;83.60;;;;;;5094610;28;19911;-60
2023/03/18 11:21:24;;;;;;;;;;;18.80;83.70;;;;;;5098146;28;19965;-59
2023/03/18 11:24:19;;;;;;;;;;;18.80;83.70;;;;;;5112623;28;19915;-60
2023/03/18 11:26:55;;;;;;;;;;;18.80;83.70;;;;;;5113784;28;19911;-59
2023/03/18 11:29:31;;;;;;;;;;;18.80;83.80;;;;;;5114661;28;19916;-59
2023/03/18 11:31:57;;;;;;;;;;;18.80;83.70;;;;;;5096370;28;19911;-59
2023/03/18 11:34:27;;;;;;;;;;;18.80;83.70;;;;;;5115581;28;19961;-59
2023/03/18 11:37:03;;;;;;;;;;;18.80;83.70;;;;;;5105008;28;20278;-60
2023/03/18 11:39:36;;;;;;;;;;;18.80;83.60;;;;;;5104521;28;19911;-60
2023/03/18 11:42:04;;;;;;;;;;;18.90;83.50;;;;;;5105621;28;20251;-62
2023/03/18 11:44:30;;;;;;;;;;;18.90;83.60;;;;;;5108394;28;19908;-61
2023/03/18 11:46:56;;;;;;;;;;;18.90;83.50;;;;;;5113908;28;19977;-60
2023/03/18 11:49:23;;;;;;;;;;;18.90;83.40;;;;;;5102845;28;20399;-60
2023/03/18 11:51:52;;;;;;;;;;;18.90;83.50;;;;;;5112950;28;19912;-59
2023/03/18 11:54:35;;;;;;;;;;;19.00;83.60;;;;;;5114017;28;19943;-60
2023/03/18 11:57:21;;;;;;;;;;;19.00;83.50;;;;;;5105125;28;19919;-60
2023/03/18 12:00:08;;;;;;;;;;;19.00;83.20;;;;;;5113191;28;19912;-60
2023/03/18 12:02:46;;;;;;;;;;;19.00;81.00;;;;;;5118325;27;20010;-60
2023/03/18 12:05:33;;;;;;;;;;;19.00;82.60;;;;;;5125791;27;19916;-60
2023/03/18 12:08:04;;;;;;;;;;;19.00;83.00;;;;;;5115824;28;20354;-59
2023/03/18 12:10:34;;;;;;;;;;;19.00;83.10;;;;;;5116112;28;19912;-59
2023/03/18 12:13:10;;;;;;;;;;;19.00;83.10;;;;;;5116351;28;19980;-59
2023/03/18 12:15:48;;;;;;;;;;;19.00;83.10;;;;;;5115995;28;19929;-60
2023/03/18 12:18:32;;;;;;;;;;;19.10;83.20;;;;;;5115725;28;19973;-60
2023/03/18 12:21:17;;;;;;;;;;;19.10;83.30;;;;;;5113917;28;19912;-58
2023/03/18 12:23:48;;;;;;;;;;;19.10;83.10;;;;;;5115899;28;19912;-59
2023/03/18 12:26:22;;;;;;;;;;;19.10;83.20;;;;;;5114864;28;19907;-60
2023/03/18 12:29:00;;;;;;;;;;;19.10;83.10;;;;;;5113726;28;19980;-60
2023/03/18 12:31:38;;;;;;;;;;;19.10;83.30;;;;;;5113765;28;19912;-61
2023/03/18 12:34:12;;;;;;;;;;;19.10;83.30;;;;;;5113578;28;19908;-61
2023/03/18 12:36:43;;;;;;;;;;;19.10;83.40;;;;;;5113535;28;20346;-61
2023/03/18 12:39:27;;;;;;;;;;;19.10;83.40;;;;;;5114209;28;19953;-61
2023/03/18 12:41:59;;;;;;;;;;;19.10;83.50;;;;;;5114131;28;19927;-60
2023/03/18 12:44:26;;;;;;;;;;;19.10;83.50;;;;;;5115124;28;19915;-59
2023/03/18 12:46:51;;;;;;;;;;;19.10;83.50;;;;;;5097369;28;19912;-59
2023/03/18 12:49:29;;;;;;;;;;;19.10;83.60;;;;;;5097035;28;20363;-59
2023/03/18 12:52:19;;;;;;;;;;;19.10;83.60;;;;;;5114369;28;21250;-60
2023/03/18 12:55:03;;;;;;;;;;;19.10;83.70;;;;;;5115099;28;19908;-60
2023/03/18 12:57:41;;;;;;;;;;;19.10;83.50;;;;;;5115235;28;19915;-60
2023/03/18 13:00:35;;;;;;;;;;;19.10;83.70;;;;;;5115033;28;19915;-60
2023/03/18 13:03:20;;;;;;;;;;;19.10;83.70;;;;;;5042862;28;20039;-59
2023/03/18 13:05:48;;;;;;;;;;;19.10;83.80;;;;;;5114897;28;20418;-60
2023/03/18 13:08:23;;;;;;;;;;;19.10;83.70;;;;;;5115074;28;19972;-60
2023/03/18 13:10:51;;;;;;;;;;;19.10;83.80;;;;;;5115593;28;19926;-60
2023/03/18 13:13:16;;;;;;;;;;;19.10;83.80;;;;;;5115091;28;20057;-60
2023/03/18 13:15:42;;;;;;;;;;;19.10;83.90;;;;;;5114972;28;20002;-60
2023/03/18 13:18:26;;;;;;;;;;;19.10;83.70;;;;;;5114850;28;19907;-59
2023/03/18 13:20:55;;;;;;;;;;;19.10;83.80;;;;;;5114753;28;19963;-59
2023/03/18 13:23:23;;;;;;;;;;;19.10;83.90;;;;;;5114670;28;19914;-59
2023/03/18 13:26:12;;;;;;;;;;;19.10;83.80;;;;;;5096342;28;19908;-59
2023/03/18 13:28:47;;;;;;;;;;;19.10;84.00;;;;;;5105966;28;19960;-58
2023/03/18 13:31:35;;;;;;;;;;;19.10;84.10;;;;;;5114804;28;19977;-58
2023/03/18 13:34:06;;;;;;;;;;;19.10;84.00;;;;;;5114876;28;19988;-59
2023/03/18 13:37:01;;;;;;;;;;;19.10;83.90;;;;;;5114637;28;19919;-60
2023/03/18 13:39:41;;;;;;;;;;;19.10;84.00;;;;;;5059448;28;19915;-59
2023/03/18 13:42:25;;;;;;;;;;;19.10;84.00;;;;;;5114758;28;19959;-60
2023/03/18 13:45:01;;;;;;;;;;;19.10;84.00;;;;;;5114618;28;19919;-59
2023/03/18 13:47:28;;;;;;;;;;;19.10;83.80;;;;;;5113221;28;19916;-60
2023/03/18 13:50:02;;;;;;;;;;;19.10;83.80;;;;;;5114524;27;19920;-59
2023/03/18 13:52:41;;;;;;;;;;;19.10;83.80;;;;;;5106753;28;20350;-59
2023/03/18 13:55:23;;;;;;;;;;;19.10;83.80;;;;;;5114177;28;19912;-59
2023/03/18 13:58:15;;;;;;;;;;;19.10;83.90;;;;;;5113394;28;20290;-59
2023/03/18 14:01:01;;;;;;;;;;;19.10;84.00;;;;;;5110992;28;20366;-60
2023/03/18 14:03:29;;;;;;;;;;;19.10;84.00;;;;;;5113490;28;19914;-59
2023/03/18 14:06:04;;;;;;;;;;;19.10;84.10;;;;;;5113613;28;19908;-59
2023/03/18 14:08:41;;;;;;;;;;;19.20;84.20;;;;;;5113461;28;19911;-59
2023/03/18 14:11:16;;;;;;;;;;;19.20;84.10;;;;;;5114267;28;20057;-59
2023/03/18 14:13:41;;;;;;;;;;;19.20;84.10;;;;;;5095885;28;20362;-59
2023/03/18 14:16:09;;;;;;;;;;;19.20;84.00;;;;;;5092026;28;19918;-59
2023/03/18 14:18:36;;;;;;;;;;;19.20;83.90;;;;;;5112207;28;19912;-60
2023/03/18 14:21:04;;;;;;;;;;;19.20;84.00;;;;;;5114030;28;20431;-59
2023/03/18 14:23:59;;;;;;;;;;;19.20;84.00;;;;;;5114019;28;19908;-60
2023/03/18 14:26:27;;;;;;;;;;;19.20;83.70;;;;;;5089981;28;19922;-59